This is the latest recevied weather packets stored in our database for station/object K7TSD. If no packets are shown the sender has not sent any weather packets the latest 10 day(s).
| Time | Temp. | Humidity | Pressure | Rain* | Wind** | Luminosity | Snow |
|---|---|---|---|---|---|---|---|
| 1778194661 | 12.22° C | 73% | 1010.3 hPa | 0 mm | - | 371 W/m² | - |
| 1778194357 | 12.22° C | 74% | 1010.6 hPa | 0 mm | - | 420 W/m² | - |
| 1778194053 | 11.67° C | 74% | 1010.3 hPa | 0 mm | - | 363 W/m² | - |
| 1778193750 | 12.22° C | 76% | 1010.2 hPa | 0 mm | - | 301 W/m² | - |
| 1778193447 | 12.78° C | 75% | 1010.1 hPa | 0 mm | - | 555 W/m² | - |
| 1778193143 | 11.67° C | 77% | 1009.9 hPa | 0 mm | - | 352 W/m² | - |
| 1778192840 | 11.67° C | 76% | 1010.2 hPa | 0 mm | - | 382 W/m² | - |
| 1778192536 | 11.67° C | 78% | 1010.2 hPa | 0 mm | - | 160 W/m² | - |
| 1778192233 | 11.67° C | 79% | 1010.3 hPa | 0 mm | - | 603 W/m² | - |
| 1778191929 | 12.22° C | 78% | 1010 hPa | 0 mm | - | 556 W/m² | - |
| 1778191626 | 11.67° C | 79% | 1010.2 hPa | 0 mm | - | 649 W/m² | - |
| 1778191325 | 11.67° C | 79% | 1010.3 hPa | 0 mm | - | 369 W/m² | - |
| 1778191020 | 11.67° C | 80% | 1010.1 hPa | 0 mm | - | 672 W/m² | - |
| 1778190718 | 11.67° C | 80% | 1010.4 hPa | 0 mm | - | 595 W/m² | - |
| 1778190415 | 11.11° C | 81% | 1010.3 hPa | 0 mm | - | 626 W/m² | - |
| 1778190111 | 11.67° C | 81% | 1010.4 hPa | 0 mm | - | 706 W/m² | - |
| 1778189807 | 11.11° C | 82% | 1010.2 hPa | 0 mm | - | 610 W/m² | - |
| 1778189505 | 11.11° C | 81% | 1010.4 hPa | 0 mm | - | 677 W/m² | - |
| 1778189201 | 10.56° C | 83% | 1010.6 hPa | 0 mm | - | 646 W/m² | - |
| 1778188898 | 10° C | 87% | 1010.7 hPa | 0 mm | - | 624 W/m² | - |
| 1778188595 | 10° C | 88% | 1010.7 hPa | 0 mm | - | 636 W/m² | - |
| 1778188290 | 9.44° C | 89% | 1010.9 hPa | 0 mm | - | 561 W/m² | - |
| 1778187988 | 9.44° C | 88% | 1010.9 hPa | 0 mm | - | 196 W/m² | - |
| 1778187684 | 10.56° C | 82% | 1011.4 hPa | 0 mm | - | 111 W/m² | - |
| 1778187381 | 10.56° C | 83% | 1010.6 hPa | 0 mm | - | 282 W/m² | - |
* Rain latest hour (hover to see other rain measurements)
** Current wind speed in m/s (hover to see current wind gust speed)